Bessemer, Michigan
Current Conditions -  °F | °C
As of 6:35 AM on Friday 24 Oct 2014 (Local Time) from KIWD Reporting Station
Clear Clear  
Wind Chill: 43°   Ceiling: Unl
Heat Index: 46°   Visibility: 8mi
Dew Point: 46°   Wind: 7mph
Humidity: 100%   Direction: 180°S
Pressure: 29.91"   Gusts: NA
Location:  46.48°N, 90.05°W
Report Text: KIWD 241135Z AUTO 18006KT 8SM CLR 08/08 A2991 RMK AO1
Loading
Personal Weather Stations






























Interactive Weather Map New forecast layout! Learn more

10-Day Weather Forecast

Advertisements
Track Severe Weather on mobile